Thunder radar more information blitzortung!


Radar de pluja more information rain snow radar


Visita la nostra xarxa de llocs de meteo:

Template documentation
and downloads

And another site



No particular awareness of the weather is required.    There are no Weather-warnings

Pagina Historial Weather Underground text

Diari Resum Novembre 6, 2017 Unitats:  Mètric    Imperial   Tant
« Previous Dia
SegĂźent Dia »
Diari Setmana Mensual Anual Personalitzada
  Maxima: Minima: Media:
Temperatura: -17.8 °C -15.8 °C -11.7 °C
Punt de rosada: -17.8 °C -23.8 °C -20.9 °C
Humitat: Humidity % 22 % 32 %
Wind Speed: 0 km/h 0 km/h 10.9 km/h
RĂ fegues de vent: 0 km/h - -
Vent:- - WSW
Pression baro: 0 hPa 34327.3 hPa -
Precipitacions: 0 mm    
Historical Graphs
 
 
Dades de taula per Novembre 6, 2017
Temps Temperatura Punt de rosada Pression baro Vent Wind Speed RĂ fegues de vent Humitat Rainfall Rate (Hourly)
-17.8 °C -17.8 °C 0 hPa Calm     Humidity % 0 mm
00:00 -13.6 °C -17.4 °C 34428.8 hPa West 7.7 km/h 12.9 km/h 62 % 0 mm
00:03 -12.3 °C -16.7 °C 34428.8 hPa WSW 15 km/h 15 km/h 58 % 0 mm
00:10 -13.6 °C -17.4 °C 34428.8 hPa WSW 7.7 km/h 10.3 km/h 61 % 0 mm
00:20 -13.6 °C -17.6 °C 34428.8 hPa WSW 7.7 km/h 10.3 km/h 61 % 0 mm
00:30 -13.7 °C -17.7 °C 34428.8 hPa West 7.7 km/h 15.6 km/h 60 % 0 mm
00:40 -13.7 °C -17.7 °C 34462.7 hPa West 7.7 km/h 7.7 km/h 60 % 0 mm
00:50 -13.8 °C -17.9 °C 34462.7 hPa WSW 7.7 km/h 10.3 km/h 59 % 0 mm
01:00 -13.9 °C -17.9 °C 34428.8 hPa WSW 12.9 km/h 12.9 km/h 60 % 0 mm
01:10 -13.9 °C -17.9 °C 34462.7 hPa WSW 7.7 km/h 15.6 km/h 60 % 0 mm
01:20 -13.8 °C -18 °C 34462.7 hPa West 5.1 km/h 10.3 km/h 59 % 0 mm
01:30 -13.8 °C -18.1 °C 34462.7 hPa West 7.7 km/h 12.9 km/h 58 % 0 mm
01:40 -13.7 °C -18.2 °C 34462.7 hPa WSW 7.7 km/h 12.9 km/h 57 % 0 mm
01:50 -13.7 °C -18.1 °C 34462.7 hPa WSW 2.6 km/h 7.7 km/h 57 % 0 mm
02:00 -13.6 °C -18.1 °C 34462.7 hPa WSW 5.1 km/h 10.3 km/h 56 % 0 mm
02:10 -13.4 °C -18.2 °C 34462.7 hPa WSW 2.6 km/h 7.7 km/h 55 % 0 mm
02:20 -13.3 °C -18 °C 34462.7 hPa WSW 7.7 km/h 10.3 km/h 55 % 0 mm
02:30 -13.1 °C -17.9 °C 34462.7 hPa WSW 15.6 km/h 15.6 km/h 54 % 0 mm
02:45 -12.8 °C -17.9 °C 34462.7 hPa WSW 5.1 km/h 12.9 km/h 52 % 0 mm
02:55 -12.6 °C -17.8 °C 34462.7 hPa SW 5.1 km/h 7.7 km/h 52 % 0 mm
03:05 -12.3 °C -17.5 °C 34462.7 hPa SW 7.7 km/h 10.3 km/h 52 % 0 mm
03:15 -12.1 °C -17.3 °C 34462.7 hPa SW 5.1 km/h 7.7 km/h 52 % 0 mm
03:25 -11.9 °C -17.3 °C 34462.7 hPa SW 7.7 km/h 12.9 km/h 51 % 0 mm
03:35 -11.8 °C -17.3 °C 34462.7 hPa SW 15.6 km/h 18.2 km/h 50 % 0 mm
03:45 -11.6 °C -17.3 °C 34462.7 hPa WSW 18.2 km/h 18.2 km/h 49 % 0 mm
03:55 -11.5 °C -17.4 °C 34462.7 hPa WSW 5.1 km/h 20.8 km/h 48 % 0 mm
04:05 -11.3 °C -17.3 °C 34462.7 hPa WSW 7.7 km/h 12.9 km/h 48 % 0 mm
04:15 -11.1 °C -17.2 °C 34462.7 hPa WSW 7.7 km/h 10.3 km/h 47 % 0 mm
04:25 -11 °C -17.1 °C 34462.7 hPa SW 12.9 km/h 15.6 km/h 47 % 0 mm
04:35 -10.6 °C -16.9 °C 34462.7 hPa WSW 5.1 km/h 15.6 km/h 46 % 0 mm
10:38 -10.6 °C -17.1 °C 34462.7 hPa NW 6 km/h 6.3 km/h 45 % 0 mm
10:39 -10.6 °C -17.1 °C 34462.7 hPa West 15 km/h 15 km/h 45 % 0 mm
10:44 -10.5 °C -16.8 °C 34462.7 hPa West 15 km/h 15 km/h 46 % 0 mm
10:49 -10.4 °C -16.8 °C 34462.7 hPa SW 15 km/h 15 km/h 46 % 0 mm
10:54 -10.4 °C -16.9 °C 34462.7 hPa WNW 11.9 km/h 11.9 km/h 45 % 0 mm
10:59 -10.4 °C -17.1 °C 34462.7 hPa NNW 14.5 km/h 14.5 km/h 44 % 0 mm
11:05 -10.3 °C -17 °C 34462.7 hPa SW 10.3 km/h 10.3 km/h 44 % 0 mm
11:10 -10.3 °C -16.8 °C 34462.7 hPa West 11.9 km/h 11.9 km/h 45 % 0 mm
11:15 -10.3 °C -17 °C 34462.7 hPa West 15 km/h 15.3 km/h 44 % 0 mm
11:20 -10.2 °C -16.8 °C 34462.7 hPa West 11.9 km/h 11.9 km/h 44 % 0 mm
11:25 -10.1 °C -16.9 °C 34428.8 hPa SW 9 km/h 9 km/h 43 % 0 mm
11:30 -10.1 °C -16.8 °C 34428.8 hPa SW 15.3 km/h 15.3 km/h 44 % 0 mm
11:35 -9.9 °C -16.8 °C 34428.8 hPa WNW 15 km/h 15 km/h 43 % 0 mm
11:40 -9.9 °C -16.8 °C 34462.7 hPa WSW 12.7 km/h 12.7 km/h 43 % 0 mm
11:45 -9.9 °C -17 °C 34462.7 hPa WSW 23.8 km/h 23.8 km/h 42 % 0 mm
11:46 -9.8 °C -16.9 °C 34462.7 hPa West 15 km/h 15 km/h 42 % 0 mm
11:51 -9.7 °C -16.8 °C 34428.8 hPa NW 17.9 km/h 17.9 km/h 42 % 0 mm
11:56 -9.8 °C -16.9 °C 34428.8 hPa West 12.7 km/h 12.7 km/h 42 % 0 mm
12:01 -9.6 °C -16.8 °C 34428.8 hPa WSW 9 km/h 9 km/h 41 % 0 mm
12:06 -9.4 °C -16.9 °C 34395 hPa West 15 km/h 15 km/h 40 % 0 mm
12:11 -9.4 °C -16.9 °C 34395 hPa WNW 20.9 km/h 20.9 km/h 40 % 0 mm
12:16 -9.3 °C -17.3 °C 34395 hPa ENE 11.9 km/h 11.9 km/h 38 % 0 mm
12:21 -9.3 °C -17.4 °C 34395 hPa West 15 km/h 15 km/h 37 % 0 mm
12:26 -9.2 °C -17.5 °C 34395 hPa WNW 11.9 km/h 11.9 km/h 36 % 0 mm
12:31 -9 °C -17.4 °C 34395 hPa WNW 15.3 km/h 15.3 km/h 36 % 0 mm
12:36 -9.2 °C -17.5 °C 34395 hPa WNW 15 km/h 15 km/h 36 % 0 mm
12:41 -9.2 °C -18 °C 34395 hPa SE 9.3 km/h 9.3 km/h 34 % 0 mm
12:46 -9.2 °C -18 °C 34395 hPa NNW 15 km/h 15 km/h 34 % 0 mm
12:51 -9.2 °C -17.9 °C 34395 hPa SW 20.9 km/h 20.9 km/h 34 % 0 mm
12:56 -9.1 °C -17.8 °C 34395 hPa NW 11.9 km/h 11.9 km/h 34 % 0 mm
13:01 -9.2 °C -18.2 °C 34395 hPa NW 15 km/h 15 km/h 33 % 0 mm
13:06 -9.1 °C -18.1 °C 34361.1 hPa SSW 15 km/h 15 km/h 33 % 0 mm
13:11 -9 °C -18 °C 34361.1 hPa West 23.8 km/h 23.8 km/h 33 % 0 mm
13:16 -9.1 °C -18.4 °C 34361.1 hPa NNE 20.9 km/h 20.9 km/h 32 % 0 mm
13:21 -9.1 °C -18.6 °C 34395 hPa NW 15 km/h 15 km/h 31 % 0 mm
13:26 -9.1 °C -18.6 °C 34395 hPa NW 23.8 km/h 23.8 km/h 31 % 0 mm
13:31 -9.1 °C -18.4 °C 34395 hPa NW 15 km/h 15 km/h 32 % 0 mm
13:36 -9.2 °C -18.9 °C 34395 hPa SW 32.8 km/h 32.8 km/h 30 % 0 mm
13:41 -9.2 °C -18.7 °C 34395 hPa WNW 9 km/h 9 km/h 31 % 0 mm
13:46 -9.2 °C -18.9 °C 34395 hPa NW 23.8 km/h 23.8 km/h 30 % 0 mm
13:51 -9.2 °C -18.7 °C 34395 hPa NW 15.3 km/h 15.3 km/h 31 % 0 mm
13:56 -9.2 °C -18.9 °C 34395 hPa WNW 20.9 km/h 20.9 km/h 30 % 0 mm
14:01 -9.2 °C -18.9 °C 34395 hPa WSW 11.9 km/h 11.9 km/h 30 % 0 mm
14:06 -9.1 °C -18.6 °C 34395 hPa NW 12.7 km/h 12.7 km/h 31 % 0 mm
14:11 -9.2 °C -18.9 °C 34395 hPa NNW 15 km/h 15 km/h 30 % 0 mm
14:16 -9.1 °C -18.8 °C 34395 hPa NW 18.3 km/h 18.3 km/h 30 % 0 mm
14:21 -9.1 °C -18.8 °C 34395 hPa WNW 11.9 km/h 11.9 km/h 30 % 0 mm
14:26 -9 °C -18.8 °C 34395 hPa West 17.9 km/h 17.9 km/h 30 % 0 mm
14:31 -9 °C -18.8 °C 34395 hPa WNW 20.9 km/h 20.9 km/h 30 % 0 mm
14:36 -9.1 °C -19.3 °C 34361.1 hPa West 35.7 km/h 35.7 km/h 28 % 0 mm
14:41 -9.1 °C -19.4 °C 34361.1 hPa WSW 20.9 km/h 20.9 km/h 28 % 0 mm
14:46 -9.1 °C -19.3 °C 34361.1 hPa West 15.3 km/h 15.3 km/h 28 % 0 mm
14:51 -9 °C -19 °C 34361.1 hPa NNW 11.9 km/h 11.9 km/h 29 % 0 mm
14:56 -9.1 °C -19.3 °C 34361.1 hPa West 23.8 km/h 23.8 km/h 28 % 0 mm
15:01 -9.1 °C -19.6 °C 34361.1 hPa South 26.9 km/h 26.9 km/h 27 % 0 mm
15:06 -9.1 °C -19.6 °C 34361.1 hPa WSW 15 km/h 15 km/h 27 % 0 mm
15:11 -9.1 °C -19.6 °C 34361.1 hPa SW 15.6 km/h 15.6 km/h 27 % 0 mm
15:16 -9.1 °C -19.6 °C 34361.1 hPa SSE 11.9 km/h 11.9 km/h 27 % 0 mm
15:21 -9.1 °C -19.9 °C 34361.1 hPa NW 15 km/h 15 km/h 26 % 0 mm
15:26 -9.2 °C -19.9 °C 34361.1 hPa SW 23.8 km/h 23.8 km/h 26 % 0 mm
15:31 -9.2 °C -20.1 °C 34361.1 hPa WNW 8 km/h 8 km/h 26 % 0 mm
15:36 -9.3 °C -20.1 °C 34361.1 hPa East 15 km/h 15 km/h 26 % 0 mm
15:41 -9.2 °C -19.7 °C 34361.1 hPa West 11.9 km/h 11.9 km/h 27 % 0 mm
15:46 -9.2 °C -20.1 °C 34361.1 hPa NW 23.8 km/h 23.8 km/h 26 % 0 mm
15:51 -9.2 °C -19.7 °C 34361.1 hPa WNW 15.6 km/h 15.6 km/h 27 % 0 mm
15:56 -9.2 °C -20.1 °C 34361.1 hPa SSW 20.9 km/h 20.9 km/h 26 % 0 mm
16:01 -9.3 °C -20.4 °C 34361.1 hPa WNW 15 km/h 15 km/h 25 % 0 mm
16:06 -9.3 °C -20.1 °C 34361.1 hPa WNW 22.5 km/h 22.5 km/h 26 % 0 mm
16:11 -9.4 °C -20.5 °C 34361.1 hPa SW 15 km/h 15 km/h 25 % 0 mm
16:16 -9.5 °C -20.8 °C 34361.1 hPa West 18.3 km/h 18.3 km/h 24 % 0 mm
16:21 -9.6 °C -21.3 °C 34327.3 hPa WNW 15 km/h 15 km/h 23 % 0 mm
16:22 -9.6 °C -21.3 °C 34327.3 hPa West 17.9 km/h 17.9 km/h 23 % 0 mm
16:27 -9.7 °C -21 °C 34327.3 hPa West 15 km/h 15 km/h 24 % 0 mm
16:32 -9.7 °C -21.1 °C 34327.3 hPa West 29.8 km/h 29.8 km/h 24 % 0 mm
16:37 -9.8 °C -21.1 °C 34327.3 hPa WNW 20.9 km/h 20.9 km/h 24 % 0 mm
16:42 -9.8 °C -21.2 °C 34327.3 hPa SW 15 km/h 15 km/h 24 % 0 mm
16:47 -9.9 °C -21.5 °C 34327.3 hPa South 11.9 km/h 11.9 km/h 23 % 0 mm
16:52 -9.9 °C -21.6 °C 34327.3 hPa WSW 23.8 km/h 23.8 km/h 23 % 0 mm
16:57 -10 °C -21.6 °C 34327.3 hPa West 15.3 km/h 15.3 km/h 23 % 0 mm
17:02 -10.1 °C -21.6 °C 34327.3 hPa WNW 23.8 km/h 23.8 km/h 23 % 0 mm
17:07 -10.2 °C -22.1 °C 34361.1 hPa WNW 29.8 km/h 29.8 km/h 22 % 0 mm
17:12 -10.2 °C -22.1 °C 34361.1 hPa West 26.9 km/h 26.9 km/h 22 % 0 mm
17:17 -10.4 °C -22.2 °C 34361.1 hPa NW 11.9 km/h 11.9 km/h 22 % 0 mm
17:22 -10.5 °C -22.3 °C 34327.3 hPa SW 23.8 km/h 23.8 km/h 22 % 0 mm
17:27 -10.6 °C -22.4 °C 34327.3 hPa WSW 11.9 km/h 11.9 km/h 22 % 0 mm
17:32 -10.7 °C -22.4 °C 34327.3 hPa West 11.9 km/h 11.9 km/h 22 % 0 mm
17:37 -10.7 °C -22.5 °C 34361.1 hPa WSW 20.9 km/h 20.9 km/h 22 % 0 mm
17:42 -10.8 °C -22.6 °C 34361.1 hPa ESE 17.9 km/h 17.9 km/h 22 % 0 mm
17:47 -10.8 °C -22.6 °C 34361.1 hPa West 15.6 km/h 15.6 km/h 22 % 0 mm
17:52 -10.9 °C -22.7 °C 34361.1 hPa WSW 23.8 km/h 23.8 km/h 22 % 0 mm
17:57 -10.9 °C -22.7 °C 34361.1 hPa SSW 11.9 km/h 11.9 km/h 22 % 0 mm
18:02 -11 °C -22.7 °C 34361.1 hPa West 17.9 km/h 17.9 km/h 22 % 0 mm
18:07 -11.1 °C -22.8 °C 34361.1 hPa WSW 22.5 km/h 22.5 km/h 22 % 0 mm
18:12 -11.1 °C -22.8 °C 34361.1 hPa SW 17.9 km/h 17.9 km/h 22 % 0 mm
18:15 -13.9 °C -23.2 °C 34428.8 hPa WSW 2.6 km/h 5.1 km/h 29 % 0 mm
18:17 -11.2 °C -22.9 °C 34361.1 hPa West 11.9 km/h 11.9 km/h 22 % 0 mm
18:22 -11.2 °C -22.9 °C 34361.1 hPa ENE 11.9 km/h 11.9 km/h 22 % 0 mm
18:23 -11.2 °C -22.9 °C 34361.1 hPa WSW 9 km/h 9 km/h 22 % 0 mm
18:25 -14 °C -23.4 °C 34395 hPa West 2.6 km/h 5.1 km/h 29 % 0 mm
18:28 -11.3 °C -22.9 °C 34361.1 hPa West 16.6 km/h 16.6 km/h 22 % 0 mm
18:33 -11.3 °C -23 °C 34361.1 hPa NW 15 km/h 15 km/h 22 % 0 mm
18:35 -14.1 °C -23.4 °C 34395 hPa WNW 2.6 km/h 2.6 km/h 29 % 0 mm
18:38 -11.3 °C -23 °C 34361.1 hPa North 7.6 km/h 7.6 km/h 22 % 0 mm
18:43 -11.4 °C -23.1 °C 34361.1 hPa West 9 km/h 9 km/h 22 % 0 mm
18:44 -11.4 °C -23.1 °C 34361.1 hPa West 9 km/h 9.3 km/h 22 % 0 mm
18:45 -14.1 °C -23.2 °C 34428.8 hPa West 5.1 km/h 5.1 km/h 30 % 0 mm
18:49 -11.5 °C -22.8 °C 34361.1 hPa NNW 9 km/h 9 km/h 23 % 0 mm
18:54 -11.6 °C -22.9 °C 34361.1 hPa West 11.9 km/h 11.9 km/h 23 % 0 mm
18:55 -14.1 °C -23.2 °C 34428.8 hPa Calm   5.1 km/h 30 % 0 mm
18:59 -11.6 °C -22.9 °C 34361.1 hPa SW 11.9 km/h 11.9 km/h 23 % 0 mm
19:04 -11.7 °C -23 °C 34361.1 hPa WSW 11.9 km/h 11.9 km/h 23 % 0 mm
19:05 -14.2 °C -23.3 °C 34428.8 hPa West 2.6 km/h 5.1 km/h 30 % 0 mm
19:09 -11.7 °C -23 °C 34361.1 hPa West 8 km/h 8 km/h 23 % 0 mm
19:14 -11.8 °C -23.1 °C 34361.1 hPa NE 6 km/h 6 km/h 23 % 0 mm
19:15 -14.3 °C -23.4 °C 34428.8 hPa WSW 5.1 km/h 7.7 km/h 30 % 0 mm
19:19 -11.8 °C -23.1 °C 34361.1 hPa West 9 km/h 9 km/h 23 % 0 mm
19:24 -11.8 °C -23.1 °C 34361.1 hPa NNE 6.8 km/h 6.8 km/h 23 % 0 mm
19:25 -14.4 °C -23.4 °C 34428.8 hPa Calm   5.1 km/h 30 % 0 mm
19:29 -11.9 °C -23.2 °C 34361.1 hPa SW 11.9 km/h 11.9 km/h 23 % 0 mm
19:34 -11.8 °C -23.1 °C 34361.1 hPa ESE 17.9 km/h 17.9 km/h 23 % 0 mm
19:35 -14.4 °C -23.4 °C 34428.8 hPa West 5.1 km/h 5.1 km/h 30 % 0 mm
19:39 -11.9 °C -23.2 °C 34395 hPa WNW 11.9 km/h 11.9 km/h 23 % 0 mm
19:44 -11.9 °C -23.2 °C 34395 hPa NW 9 km/h 9 km/h 23 % 0 mm
19:45 -14.5 °C -23.3 °C 34428.8 hPa WSW 2.6 km/h 7.7 km/h 31 % 0 mm
19:49 -11.9 °C -22.9 °C 34395 hPa NW 11.9 km/h 11.9 km/h 24 % 0 mm
19:54 -12.1 °C -23 °C 34395 hPa WSW 9 km/h 9 km/h 24 % 0 mm
19:55 -14.8 °C -23.6 °C 34428.8 hPa WSW 2.6 km/h 7.7 km/h 31 % 0 mm
19:59 -12.1 °C -23.1 °C 34395 hPa WSW 9 km/h 9 km/h 24 % 0 mm
20:04 -12.3 °C -23.2 °C 34395 hPa WNW 6.3 km/h 6.3 km/h 24 % 0 mm
20:05 -12.3 °C -23.2 °C 34395 hPa WNW 6 km/h 6 km/h 24 % 0 mm
20:10 -12.3 °C -23.2 °C 34395 hPa West 6.8 km/h 6.8 km/h 24 % 0 mm
20:15 -12.4 °C -23.3 °C 34395 hPa West 9 km/h 9 km/h 24 % 0 mm
20:20 -12.4 °C -23.3 °C 34395 hPa WSW 9 km/h 9 km/h 24 % 0 mm
20:25 -12.6 °C -23.2 °C 34395 hPa SW 11.9 km/h 11.9 km/h 25 % 0 mm
20:30 -12.7 °C -23.2 °C 34395 hPa SSW 3.1 km/h 3.7 km/h 25 % 0 mm
20:35 -12.7 °C -23.3 °C 34395 hPa SSW 6 km/h 6 km/h 25 % 0 mm
20:40 -12.8 °C -23.3 °C 34395 hPa SE 4.2 km/h   25 % 0 mm
20:45 -12.8 °C -23.4 °C 34395 hPa NE 9 km/h 9 km/h 25 % 0 mm
20:50 -12.8 °C -23.3 °C 34395 hPa ENE 8 km/h 8 km/h 25 % 0 mm
20:55 -12.8 °C -23.3 °C 34395 hPa SW 6 km/h 6 km/h 25 % 0 mm
21:00 -12.9 °C -23.4 °C 34395 hPa East 6 km/h 6 km/h 25 % 0 mm
21:05 -12.9 °C -23.4 °C 34395 hPa ENE 6 km/h 6 km/h 25 % 0 mm
21:10 -12.9 °C -23.5 °C 34395 hPa NW 15 km/h 15 km/h 25 % 0 mm
21:15 -12.9 °C -23.5 °C 34395 hPa ENE 6 km/h 6 km/h 25 % 0 mm
21:20 -13 °C -23.5 °C 34395 hPa ENE 3.7 km/h 3.7 km/h 25 % 0 mm
21:25 -13 °C -23.5 °C 34395 hPa ENE 6 km/h   25 % 0 mm
21:26 -13 °C -23.5 °C 34395 hPa ESE 6.8 km/h   25 % 0 mm
21:31 -13.1 °C -23.6 °C 34395 hPa ENE 6.3 km/h 6.3 km/h 25 % 0 mm
21:35 -15 °C -23.5 °C 34462.7 hPa Calm   2.6 km/h 32 % 0 mm
21:36 -13.2 °C -23.4 °C 34428.8 hPa Calm     26 % 0 mm
21:41 -13.2 °C -23.4 °C 34428.8 hPa WSW 3.1 km/h 3.1 km/h 26 % 0 mm
21:45 -15.1 °C -23.6 °C 34428.8 hPa NW 5.1 km/h 5.1 km/h 32 % 0 mm
21:46 -13.2 °C -23.4 °C 34428.8 hPa SW 6 km/h 6 km/h 26 % 0 mm
21:51 -13.3 °C -23.5 °C 34395 hPa SW 6 km/h 6 km/h 26 % 0 mm
21:55 -15.1 °C -23.7 °C 34462.7 hPa North 2.6 km/h 5.1 km/h 32 % 0 mm
21:56 -13.4 °C -23.6 °C 34395 hPa SSW 6 km/h 6 km/h 26 % 0 mm
22:01 -13.4 °C -23.7 °C 34395 hPa SW 6 km/h 6 km/h 26 % 0 mm
22:05 -15.1 °C -23.7 °C 34462.7 hPa North 2.6 km/h 5.1 km/h 32 % 0 mm
22:06 -13.4 °C -23.4 °C 34428.8 hPa WNW 6 km/h 6 km/h 27 % 0 mm
22:11 -13.4 °C -23.4 °C 34428.8 hPa South 6 km/h 6 km/h 27 % 0 mm
22:15 -15.3 °C -23.8 °C 34428.8 hPa NNE 5.1 km/h 7.7 km/h 32 % 0 mm
22:16 -13.5 °C -23.4 °C 34428.8 hPa West 3.1 km/h   27 % 0 mm
22:21 -13.6 °C -23.4 °C 34428.8 hPa WSW 3.7 km/h 3.7 km/h 27 % 0 mm
22:25 -15.4 °C -23.7 °C 34462.7 hPa Calm   2.6 km/h 33 % 0 mm
22:26 -13.7 °C -23.6 °C 34428.8 hPa West 6.8 km/h 6.8 km/h 27 % 0 mm
22:31 -13.7 °C -23.6 °C 34428.8 hPa WSW 6.8 km/h 6.8 km/h 27 % 0 mm
22:35 -15.5 °C -23.8 °C 34462.7 hPa Calm     33 % 0 mm
22:36 -13.7 °C -23.6 °C 34428.8 hPa West 6.3 km/h 6.3 km/h 27 % 0 mm
22:41 -13.6 °C -23.5 °C 34428.8 hPa SSW 6 km/h 6 km/h 27 % 0 mm
22:45 -15.5 °C -23.8 °C 34462.7 hPa NW 2.6 km/h 5.1 km/h 33 % 0 mm
22:46 -13.6 °C -23.5 °C 34428.8 hPa West 6.3 km/h 6.3 km/h 27 % 0 mm
22:51 -13.6 °C -23.2 °C 34395 hPa WSW 9 km/h 9 km/h 28 % 0 mm
22:55 -15.6 °C -23.6 °C 34496.6 hPa Calm   5.1 km/h 34 % 0 mm
22:56 -13.7 °C -23.4 °C 34395 hPa SSE 8 km/h 8 km/h 28 % 0 mm
23:01 -13.6 °C -23.3 °C 34395 hPa WNW 9 km/h 9 km/h 28 % 0 mm
23:05 -15.7 °C -23.7 °C 34496.6 hPa West 2.6 km/h 2.6 km/h 34 % 0 mm
23:06 -13.6 °C -23.3 °C 34395 hPa Calm     28 % 0 mm
23:11 -13.8 °C -23.4 °C 34395 hPa WSW 9 km/h 9 km/h 28 % 0 mm
23:15 -15.8 °C -23.8 °C 34462.7 hPa West 2.6 km/h 7.7 km/h 34 % 0 mm
23:16 -14 °C -23.6 °C 34395 hPa South 3.1 km/h 3.1 km/h 28 % 0 mm
23:18 -13.9 °C -23.6 °C 34395 hPa South 3.1 km/h 3.1 km/h 28 % 0 mm
23:23 -13.9 °C -23.5 °C 34395 hPa WSW 6 km/h 6.8 km/h 28 % 0 mm
23:25 -15.7 °C -23.7 °C 34462.7 hPa WNW 2.6 km/h 5.1 km/h 34 % 0 mm
23:28 -13.9 °C -23.6 °C 34395 hPa West 11.9 km/h 11.9 km/h 28 % 0 mm
23:33 -13.9 °C -23.2 °C 34395 hPa WSW 8.5 km/h 8.5 km/h 29 % 0 mm
23:35 -15.7 °C -23.7 °C 34462.7 hPa NNW 2.6 km/h 2.6 km/h 34 % 0 mm
23:38 -13.9 °C -23.3 °C 34395 hPa West 6 km/h 6 km/h 29 % 0 mm
23:43 -13.9 °C -23.3 °C 34395 hPa SE 3.1 km/h 3.1 km/h 29 % 0 mm
23:45 -15.7 °C -23.7 °C 34428.8 hPa NW 2.6 km/h 5.1 km/h 34 % 0 mm
23:48 -13.9 °C -23.2 °C 34395 hPa WNW 6.8 km/h 6.8 km/h 29 % 0 mm
23:53 -13.9 °C -23.2 °C 34395 hPa SW 3.1 km/h 3.1 km/h 29 % 0 mm
23:55 -15.8 °C -23.6 °C 34462.7 hPa WNW 2.6 km/h 2.6 km/h 35 % 0 mm
23:58 -13.9 °C -23.2 °C 34395 hPa WNW 6 km/h 6 km/h 29 % 0 mm
Meteo Sesrovires
Elogis d' Weather Underground - 2 mb

Guio original per  Jim McMurry - jmcmurry@mwt.net Adaptat per a la plantilla per  Wim van der Kuil - Leuven-Template.eu

Trobareu la nostra informacio del temps tambe a:

Weather Underground

AWEKAS